sensor_id;sensor_type;location;lat;lon;timestamp;pressure;altitude;pressure_sealevel;temperature;humidity
64078;BME280;51039;49.696;10.808;2023-05-25T00:02:00;98941.44;;;9.09;70.71
64078;BME280;51039;49.696;10.808;2023-05-25T00:04:31;98938.78;;;9.09;70.52
64078;BME280;51039;49.696;10.808;2023-05-25T00:07:00;98940.16;;;9.04;71.01
64078;BME280;51039;49.696;10.808;2023-05-25T00:09:26;98951.25;;;9.00;70.95
64078;BME280;51039;49.696;10.808;2023-05-25T00:11:52;98956.34;;;9.01;70.88
64078;BME280;51039;49.696;10.808;2023-05-25T00:14:17;98950.78;;;8.96;70.97
64078;BME280;51039;49.696;10.808;2023-05-25T00:16:43;98948.84;;;8.90;71.53
64078;BME280;51039;49.696;10.808;2023-05-25T00:19:12;98946.53;;;8.87;71.94
64078;BME280;51039;49.696;10.808;2023-05-25T00:21:38;98945.91;;;8.85;72.04
64078;BME280;51039;49.696;10.808;2023-05-25T00:24:05;98944.28;;;8.84;71.79
64078;BME280;51039;49.696;10.808;2023-05-25T00:26:31;98944.63;;;8.81;72.23
64078;BME280;51039;49.696;10.808;2023-05-25T00:28:57;98939.72;;;8.78;72.19
64078;BME280;51039;49.696;10.808;2023-05-25T00:31:24;98935.81;;;8.65;72.82
64078;BME280;51039;49.696;10.808;2023-05-25T00:33:50;98933.34;;;8.64;73.25
64078;BME280;51039;49.696;10.808;2023-05-25T00:36:15;98932.06;;;8.60;73.88
64078;BME280;51039;49.696;10.808;2023-05-25T00:38:40;98937.34;;;8.60;73.94
64078;BME280;51039;49.696;10.808;2023-05-25T00:41:06;98932.44;;;8.57;73.88
64078;BME280;51039;49.696;10.808;2023-05-25T00:43:31;98927.16;;;8.57;73.76
64078;BME280;51039;49.696;10.808;2023-05-25T00:45:56;98931.13;;;8.53;74.14
64078;BME280;51039;49.696;10.808;2023-05-25T00:48:24;98930.28;;;8.52;74.39
64078;BME280;51039;49.696;10.808;2023-05-25T00:50:50;98926.53;;;8.47;74.17
64078;BME280;51039;49.696;10.808;2023-05-25T00:53:18;98931.38;;;8.43;74.32
64078;BME280;51039;49.696;10.808;2023-05-25T00:58:19;98926.72;;;8.37;74.56
64078;BME280;51039;49.696;10.808;2023-05-25T01:00:45;98922.81;;;8.33;75.01
64078;BME280;51039;49.696;10.808;2023-05-25T01:03:15;98927.75;;;8.36;75.00
64078;BME280;51039;49.696;10.808;2023-05-25T01:05:46;98924.47;;;8.34;74.99
64078;BME280;51039;49.696;10.808;2023-05-25T01:08:13;98927.81;;;8.28;75.24
64078;BME280;51039;49.696;10.808;2023-05-25T01:10:40;98927.13;;;8.25;75.28
64078;BME280;51039;49.696;10.808;2023-05-25T01:13:08;98919.19;;;8.25;74.89
64078;BME280;51039;49.696;10.808;2023-05-25T01:15:36;98927.31;;;8.24;75.47
64078;BME280;51039;49.696;10.808;2023-05-25T01:18:03;98931.75;;;8.23;75.36
64078;BME280;51039;49.696;10.808;2023-05-25T01:20:29;98924.03;;;8.22;75.46
64078;BME280;51039;49.696;10.808;2023-05-25T01:25:42;98922.59;;;8.11;75.81
64078;BME280;51039;49.696;10.808;2023-05-25T01:28:20;98919.31;;;8.09;75.96
64078;BME280;51039;49.696;10.808;2023-05-25T01:30:50;98927.88;;;8.11;75.73
64078;BME280;51039;49.696;10.808;2023-05-25T01:33:17;98925.88;;;8.13;75.63
64078;BME280;51039;49.696;10.808;2023-05-25T01:35:43;98923.41;;;8.12;75.64
64078;BME280;51039;49.696;10.808;2023-05-25T01:38:09;98924.59;;;8.09;76.02
64078;BME280;51039;49.696;10.808;2023-05-25T01:40:35;98933.69;;;8.06;76.50
64078;BME280;51039;49.696;10.808;2023-05-25T01:43:00;98929.91;;;8.01;76.72
64078;BME280;51039;49.696;10.808;2023-05-25T01:45:26;98925.63;;;8.00;76.65
64078;BME280;51039;49.696;10.808;2023-05-25T01:47:55;98919.69;;;7.98;76.67
64078;BME280;51039;49.696;10.808;2023-05-25T01:53:11;98926.97;;;7.96;76.89
64078;BME280;51039;49.696;10.808;2023-05-25T01:55:45;98923.84;;;7.92;77.22
64078;BME280;51039;49.696;10.808;2023-05-25T01:58:17;98934.56;;;7.91;77.07
64078;BME280;51039;49.696;10.808;2023-05-25T02:00:45;98938.03;;;7.91;77.35
64078;BME280;51039;49.696;10.808;2023-05-25T02:03:13;98929.81;;;7.86;77.56
64078;BME280;51039;49.696;10.808;2023-05-25T02:05:40;98942.19;;;7.85;77.66
64078;BME280;51039;49.696;10.808;2023-05-25T02:08:05;98936.91;;;7.77;77.97
64078;BME280;51039;49.696;10.808;2023-05-25T02:10:31;98933.28;;;7.78;78.03
64078;BME280;51039;49.696;10.808;2023-05-25T02:12:56;98931.63;;;7.77;77.93
64078;BME280;51039;49.696;10.808;2023-05-25T02:15:22;98928.03;;;7.78;77.81
64078;BME280;51039;49.696;10.808;2023-05-25T02:17:47;98933.94;;;7.80;77.63
64078;BME280;51039;49.696;10.808;2023-05-25T02:20:12;98929.00;;;7.77;78.09
64078;BME280;51039;49.696;10.808;2023-05-25T02:22:38;98931.34;;;7.72;77.93
64078;BME280;51039;49.696;10.808;2023-05-25T02:25:10;98932.97;;;7.73;78.28
64078;BME280;51039;49.696;10.808;2023-05-25T02:27:35;98925.91;;;7.74;78.58
64078;BME280;51039;49.696;10.808;2023-05-25T02:30:00;98918.84;;;7.66;78.53
64078;BME280;51039;49.696;10.808;2023-05-25T02:32:26;98925.44;;;7.62;79.12
64078;BME280;51039;49.696;10.808;2023-05-25T02:34:53;98922.66;;;7.55;79.71
64078;BME280;51039;49.696;10.808;2023-05-25T02:37:18;98917.38;;;7.55;79.31
64078;BME280;51039;49.696;10.808;2023-05-25T02:39:44;98916.41;;;7.48;79.82
64078;BME280;51039;49.696;10.808;2023-05-25T02:42:09;98921.84;;;7.46;79.82
64078;BME280;51039;49.696;10.808;2023-05-25T02:44:34;98918.88;;;7.50;79.75
64078;BME280;51039;49.696;10.808;2023-05-25T02:47:00;98922.19;;;7.43;79.77
64078;BME280;51039;49.696;10.808;2023-05-25T02:49:25;98928.13;;;7.45;79.85
64078;BME280;51039;49.696;10.808;2023-05-25T02:51:50;98925.66;;;7.44;79.88
64078;BME280;51039;49.696;10.808;2023-05-25T02:54:16;98924.84;;;7.43;80.03
64078;BME280;51039;49.696;10.808;2023-05-25T02:56:41;98922.19;;;7.43;80.05
64078;BME280;51039;49.696;10.808;2023-05-25T02:59:06;98918.06;;;7.41;80.01
64078;BME280;51039;49.696;10.808;2023-05-25T03:01:32;98927.13;;;7.38;80.42
64078;BME280;51039;49.696;10.808;2023-05-25T03:03:58;98931.75;;;7.36;80.50
64078;BME280;51039;49.696;10.808;2023-05-25T03:06:24;98932.44;;;7.30;80.67
64078;BME280;51039;49.696;10.808;2023-05-25T03:08:50;98942.47;;;7.35;80.66
64078;BME280;51039;49.696;10.808;2023-05-25T03:11:15;98947.91;;;7.33;80.64
64078;BME280;51039;49.696;10.808;2023-05-25T03:13:40;98943.97;;;7.37;81.06
64078;BME280;51039;49.696;10.808;2023-05-25T03:16:06;98944.44;;;7.33;80.83
64078;BME280;51039;49.696;10.808;2023-05-25T03:18:31;98949.06;;;7.31;80.92
64078;BME280;51039;49.696;10.808;2023-05-25T03:20:56;98945.78;;;7.28;81.06
64078;BME280;51039;49.696;10.808;2023-05-25T03:23:22;98940.66;;;7.27;81.36
64078;BME280;51039;49.696;10.808;2023-05-25T03:25:48;98951.84;;;7.29;81.37
64078;BME280;51039;49.696;10.808;2023-05-25T03:28:14;98958.78;;;7.30;81.38
64078;BME280;51039;49.696;10.808;2023-05-25T03:30:40;98957.78;;;7.31;80.92
64078;BME280;51039;49.696;10.808;2023-05-25T03:33:05;98963.22;;;7.38;81.01
64078;BME280;51039;49.696;10.808;2023-05-25T03:35:30;98961.09;;;7.41;80.63
64078;BME280;51039;49.696;10.808;2023-05-25T03:37:56;98968.63;;;7.44;80.44
64078;BME280;51039;49.696;10.808;2023-05-25T03:40:21;98962.72;;;7.42;80.85
64078;BME280;51039;49.696;10.808;2023-05-25T03:42:47;98961.56;;;7.45;80.89
64078;BME280;51039;49.696;10.808;2023-05-25T03:45:12;98974.88;;;7.52;80.46
64078;BME280;51039;49.696;10.808;2023-05-25T03:47:37;98975.72;;;7.52;80.58
64078;BME280;51039;49.696;10.808;2023-05-25T03:50:03;98970.09;;;7.63;80.84
64078;BME280;51039;49.696;10.808;2023-05-25T03:52:29;98972.88;;;7.70;79.78
64078;BME280;51039;49.696;10.808;2023-05-25T03:54:55;98971.53;;;7.82;79.27
64078;BME280;51039;49.696;10.808;2023-05-25T03:57:20;98975.16;;;7.81;79.31
64078;BME280;51039;49.696;10.808;2023-05-25T03:59:45;98982.69;;;7.93;78.74
64078;BME280;51039;49.696;10.808;2023-05-25T04:02:11;98989.38;;;8.20;77.86
64078;BME280;51039;49.696;10.808;2023-05-25T04:04:36;98993.78;;;8.19;77.88
64078;BME280;51039;49.696;10.808;2023-05-25T04:07:05;98996.28;;;8.21;78.61
64078;BME280;51039;49.696;10.808;2023-05-25T04:09:30;98996.78;;;8.16;77.90
64078;BME280;51039;49.696;10.808;2023-05-25T04:11:56;98995.44;;;8.83;76.22
64078;BME280;51039;49.696;10.808;2023-05-25T04:14:21;98992.59;;;9.69;71.87
64078;BME280;51039;49.696;10.808;2023-05-25T04:16:46;98991.56;;;10.44;69.02
64078;BME280;51039;49.696;10.808;2023-05-25T04:19:12;98990.53;;;11.03;67.05
64078;BME280;51039;49.696;10.808;2023-05-25T04:21:37;98998.41;;;11.39;65.49
64078;BME280;51039;49.696;10.808;2023-05-25T04:24:02;98992.97;;;11.83;63.49
64078;BME280;51039;49.696;10.808;2023-05-25T04:26:27;98997.59;;;12.02;62.43
64078;BME280;51039;49.696;10.808;2023-05-25T04:28:53;99004.34;;;12.46;61.04
64078;BME280;51039;49.696;10.808;2023-05-25T04:31:20;99009.47;;;12.54;60.00
64078;BME280;51039;49.696;10.808;2023-05-25T04:33:45;99010.84;;;13.19;58.57
64078;BME280;51039;49.696;10.808;2023-05-25T04:36:10;99018.81;;;13.85;56.80
64078;BME280;51039;49.696;10.808;2023-05-25T04:38:38;99005.59;;;14.24;54.93
64078;BME280;51039;49.696;10.808;2023-05-25T04:41:03;99006.50;;;14.56;54.18
64078;BME280;51039;49.696;10.808;2023-05-25T04:43:30;99009.34;;;14.68;53.20
64078;BME280;51039;49.696;10.808;2023-05-25T04:45:56;99009.09;;;15.08;52.54
64078;BME280;51039;49.696;10.808;2023-05-25T04:48:21;99009.13;;;15.33;51.82
64078;BME280;51039;49.696;10.808;2023-05-25T04:50:48;99006.78;;;15.68;51.13
64078;BME280;51039;49.696;10.808;2023-05-25T04:53:14;99012.09;;;16.12;49.85
64078;BME280;51039;49.696;10.808;2023-05-25T04:55:39;99008.47;;;15.63;51.16
64078;BME280;51039;49.696;10.808;2023-05-25T04:58:04;99008.78;;;16.65;48.39
64078;BME280;51039;49.696;10.808;2023-05-25T05:00:30;99016.19;;;16.82;47.29
64078;BME280;51039;49.696;10.808;2023-05-25T05:02:56;99023.56;;;16.86;47.31
64078;BME280;51039;49.696;10.808;2023-05-25T05:05:22;99025.63;;;16.84;47.50
64078;BME280;51039;49.696;10.808;2023-05-25T05:07:48;99020.31;;;17.38;46.53
64078;BME280;51039;49.696;10.808;2023-05-25T05:10:13;99028.28;;;18.04;44.94
64078;BME280;51039;49.696;10.808;2023-05-25T05:12:39;99015.63;;;18.28;44.23
64078;BME280;51039;49.696;10.808;2023-05-25T05:15:04;99022.97;;;18.73;43.15
64078;BME280;51039;49.696;10.808;2023-05-25T05:17:30;99020.31;;;19.19;42.41
64078;BME280;51039;49.696;10.808;2023-05-25T05:20:08;99018.75;;;19.57;41.43
64078;BME280;51039;49.696;10.808;2023-05-25T05:22:35;99024.28;;;19.16;42.02
64078;BME280;51039;49.696;10.808;2023-05-25T05:25:04;99024.72;;;19.25;41.20
64078;BME280;51039;49.696;10.808;2023-05-25T05:27:31;99028.53;;;18.83;42.43
64078;BME280;51039;49.696;10.808;2023-05-25T05:29:57;99035.31;;;19.49;41.16
64078;BME280;51039;49.696;10.808;2023-05-25T05:32:23;99030.97;;;19.65;41.61
64078;BME280;51039;49.696;10.808;2023-05-25T05:34:53;99039.81;;;19.77;41.16
64078;BME280;51039;49.696;10.808;2023-05-25T05:37:21;99036.50;;;19.92;41.26
64078;BME280;51039;49.696;10.808;2023-05-25T05:39:46;99042.22;;;19.45;40.52
64078;BME280;51039;49.696;10.808;2023-05-25T05:42:12;99038.09;;;19.54;40.33
64078;BME280;51039;49.696;10.808;2023-05-25T05:44:37;99044.09;;;19.44;41.16
64078;BME280;51039;49.696;10.808;2023-05-25T05:47:02;99048.91;;;19.76;40.21
64078;BME280;51039;49.696;10.808;2023-05-25T05:49:28;99048.13;;;19.13;41.48
64078;BME280;51039;49.696;10.808;2023-05-25T05:51:54;99040.34;;;18.82;42.18
64078;BME280;51039;49.696;10.808;2023-05-25T05:54:20;99039.31;;;19.80;40.85
64078;BME280;51039;49.696;10.808;2023-05-25T05:56:45;99055.38;;;20.75;39.43
64078;BME280;51039;49.696;10.808;2023-05-25T05:59:10;99048.19;;;21.72;37.48
64078;BME280;51039;49.696;10.808;2023-05-25T06:01:36;99047.09;;;22.11;36.52
64078;BME280;51039;49.696;10.808;2023-05-25T08:35:04;99032.72;;;24.98;31.86
64078;BME280;51039;49.696;10.808;2023-05-25T08:37:30;99035.94;;;24.55;32.49
64078;BME280;51039;49.696;10.808;2023-05-25T08:39:56;99029.88;;;24.14;32.91
64078;BME280;51039;49.696;10.808;2023-05-25T08:42:24;99033.78;;;25.02;31.94
64078;BME280;51039;49.696;10.808;2023-05-25T08:44:50;99037.84;;;24.60;32.47
64078;BME280;51039;49.696;10.808;2023-05-25T08:47:16;99035.88;;;23.95;33.75
64078;BME280;51039;49.696;10.808;2023-05-25T08:49:45;99043.63;;;24.22;33.02
64078;BME280;51039;49.696;10.808;2023-05-25T08:52:13;99035.81;;;22.92;35.36
64078;BME280;51039;49.696;10.808;2023-05-25T08:54:40;99031.09;;;24.42;32.66
64078;BME280;51039;49.696;10.808;2023-05-25T08:57:14;99033.91;;;25.60;31.32
64078;BME280;51039;49.696;10.808;2023-05-25T08:59:52;99036.84;;;24.90;32.44
64078;BME280;51039;49.696;10.808;2023-05-25T09:02:29;99034.97;;;24.20;33.41
64078;BME280;51039;49.696;10.808;2023-05-25T09:05:00;99027.84;;;25.39;31.25
64078;BME280;51039;49.696;10.808;2023-05-25T09:07:28;99036.69;;;26.33;30.52
64078;BME280;51039;49.696;10.808;2023-05-25T09:09:54;99026.16;;;26.07;30.79
64078;BME280;51039;49.696;10.808;2023-05-25T09:12:21;99023.19;;;24.61;32.69
64078;BME280;51039;49.696;10.808;2023-05-25T09:14:48;99031.72;;;25.62;31.29
64078;BME280;51039;49.696;10.808;2023-05-25T09:17:14;99028.22;;;26.15;31.31
64078;BME280;51039;49.696;10.808;2023-05-25T09:19:40;99024.91;;;25.65;31.78
64078;BME280;51039;49.696;10.808;2023-05-25T09:22:05;99035.84;;;25.20;32.14
64078;BME280;51039;49.696;10.808;2023-05-25T09:24:31;99033.84;;;24.97;32.47
64078;BME280;51039;49.696;10.808;2023-05-25T09:26:57;99041.97;;;24.37;33.22
64078;BME280;51039;49.696;10.808;2023-05-25T09:29:23;99022.66;;;24.64;32.90
64078;BME280;51039;49.696;10.808;2023-05-25T09:31:48;99026.47;;;24.58;32.27
64078;BME280;51039;49.696;10.808;2023-05-25T09:34:14;99025.47;;;24.88;31.95
64078;BME280;51039;49.696;10.808;2023-05-25T09:36:40;99026.91;;;24.05;33.13
64078;BME280;51039;49.696;10.808;2023-05-25T09:39:09;99023.81;;;24.97;31.94
64078;BME280;51039;49.696;10.808;2023-05-25T09:41:35;99025.31;;;25.14;32.49
64078;BME280;51039;49.696;10.808;2023-05-25T09:44:09;99026.78;;;24.96;32.68
64078;BME280;51039;49.696;10.808;2023-05-25T09:46:35;99043.13;;;25.94;30.69
64078;BME280;51039;49.696;10.808;2023-05-25T09:49:03;99025.16;;;24.45;31.99
64078;BME280;51039;49.696;10.808;2023-05-25T09:51:31;99015.66;;;26.00;31.32
64078;BME280;51039;49.696;10.808;2023-05-25T09:54:01;99024.44;;;25.87;31.04
64078;BME280;51039;49.696;10.808;2023-05-25T09:56:28;99022.84;;;24.73;31.69
64078;BME280;51039;49.696;10.808;2023-05-25T09:58:55;99014.53;;;25.03;31.07
64078;BME280;51039;49.696;10.808;2023-05-25T10:01:21;99016.97;;;24.60;32.61
64078;BME280;51039;49.696;10.808;2023-05-25T10:03:47;99029.03;;;25.92;30.68
64078;BME280;51039;49.696;10.808;2023-05-25T10:06:13;99022.78;;;25.91;31.50
64078;BME280;51039;49.696;10.808;2023-05-25T10:08:40;99019.03;;;24.79;32.64
64078;BME280;51039;49.696;10.808;2023-05-25T10:11:08;99018.31;;;25.47;31.68
64078;BME280;51039;49.696;10.808;2023-05-25T10:13:35;99015.91;;;25.06;32.04
64078;BME280;51039;49.696;10.808;2023-05-25T10:16:01;99013.94;;;24.72;33.15
64078;BME280;51039;49.696;10.808;2023-05-25T10:18:28;99016.53;;;25.32;32.50
64078;BME280;51039;49.696;10.808;2023-05-25T10:21:00;99014.47;;;25.48;31.45
64078;BME280;51039;49.696;10.808;2023-05-25T10:23:29;99019.09;;;24.63;33.28
64078;BME280;51039;49.696;10.808;2023-05-25T10:25:59;99017.16;;;24.09;33.30
64078;BME280;51039;49.696;10.808;2023-05-25T10:28:29;99021.50;;;24.05;33.00
64078;BME280;51039;49.696;10.808;2023-05-25T10:31:00;99018.53;;;24.72;33.01
64078;BME280;51039;49.696;10.808;2023-05-25T10:33:27;99015.53;;;25.81;31.86
64078;BME280;51039;49.696;10.808;2023-05-25T10:35:53;99020.84;;;24.94;32.46
64078;BME280;51039;49.696;10.808;2023-05-25T10:38:20;99027.94;;;24.84;32.47
64078;BME280;51039;49.696;10.808;2023-05-25T10:40:46;99023.19;;;25.05;32.39
64078;BME280;51039;49.696;10.808;2023-05-25T10:43:14;99013.03;;;26.14;32.03
64078;BME280;51039;49.696;10.808;2023-05-25T10:45:41;99018.66;;;25.99;31.42
64078;BME280;51039;49.696;10.808;2023-05-25T10:48:07;99013.56;;;24.89;32.52
64078;BME280;51039;49.696;10.808;2023-05-25T10:50:33;99019.31;;;24.07;33.28
64078;BME280;51039;49.696;10.808;2023-05-25T10:53:33;99016.50;;;24.43;33.04
64078;BME280;51039;49.696;10.808;2023-05-25T10:58:17;99006.97;;;24.50;32.49
64078;BME280;51039;49.696;10.808;2023-05-25T11:00:55;99007.78;;;24.46;32.70
64078;BME280;51039;49.696;10.808;2023-05-25T11:06:15;99017.50;;;23.87;34.71
64078;BME280;51039;49.696;10.808;2023-05-25T11:11:15;99018.03;;;23.63;34.31
64078;BME280;51039;49.696;10.808;2023-05-25T11:13:44;99016.97;;;23.54;34.45
64078;BME280;51039;49.696;10.808;2023-05-25T11:19:00;99008.06;;;23.18;35.46
64078;BME280;51039;49.696;10.808;2023-05-25T11:23:55;99008.59;;;23.30;34.85
64078;BME280;51039;49.696;10.808;2023-05-25T11:26:23;99000.31;;;24.22;34.02
64078;BME280;51039;49.696;10.808;2023-05-25T11:28:50;98999.03;;;24.04;34.26
64078;BME280;51039;49.696;10.808;2023-05-25T11:31:20;99003.47;;;23.33;35.17
64078;BME280;51039;49.696;10.808;2023-05-25T11:33:53;98999.41;;;23.16;35.47
64078;BME280;51039;49.696;10.808;2023-05-25T11:36:21;98993.44;;;23.03;36.74
64078;BME280;51039;49.696;10.808;2023-05-25T11:38:47;99007.66;;;22.58;35.93
64078;BME280;51039;49.696;10.808;2023-05-25T11:41:19;98992.25;;;22.63;36.72
64078;BME280;51039;49.696;10.808;2023-05-25T11:43:49;98992.56;;;22.82;36.24
64078;BME280;51039;49.696;10.808;2023-05-25T11:46:16;98987.19;;;22.77;35.80
64078;BME280;51039;49.696;10.808;2023-05-25T11:48:49;98981.56;;;23.04;36.43
64078;BME280;51039;49.696;10.808;2023-05-25T11:51:16;98992.91;;;23.06;36.79
64078;BME280;51039;49.696;10.808;2023-05-25T11:53:43;98980.75;;;23.35;36.57
64078;BME280;51039;49.696;10.808;2023-05-25T11:56:10;98978.78;;;23.91;38.12
64078;BME280;51039;49.696;10.808;2023-05-25T11:58:36;98982.88;;;23.63;35.46
64078;BME280;51039;49.696;10.808;2023-05-25T12:01:23;98983.72;;;23.23;36.97
64078;BME280;51039;49.696;10.808;2023-05-25T12:03:52;98974.25;;;23.30;36.18
64078;BME280;51039;49.696;10.808;2023-05-25T12:06:27;98983.16;;;23.21;36.47
64078;BME280;51039;49.696;10.808;2023-05-25T12:09:03;98977.22;;;23.19;35.86
64078;BME280;51039;49.696;10.808;2023-05-25T12:11:36;98976.97;;;23.20;36.56
64078;BME280;51039;49.696;10.808;2023-05-25T12:14:03;98979.00;;;24.05;36.40
64078;BME280;51039;49.696;10.808;2023-05-25T12:16:30;98974.53;;;23.24;36.18
64078;BME280;51039;49.696;10.808;2023-05-25T12:18:58;98969.66;;;23.36;36.33
64078;BME280;51039;49.696;10.808;2023-05-25T12:21:24;98977.78;;;23.16;37.39
64078;BME280;51039;49.696;10.808;2023-05-25T12:23:50;98971.31;;;23.11;37.17
64078;BME280;51039;49.696;10.808;2023-05-25T12:26:17;98971.84;;;23.29;36.40
64078;BME280;51039;49.696;10.808;2023-05-25T12:28:59;98964.53;;;23.14;37.03
64078;BME280;51039;49.696;10.808;2023-05-25T12:31:29;98955.34;;;23.20;37.75
64078;BME280;51039;49.696;10.808;2023-05-25T12:39:02;98958.84;;;23.00;37.70
64078;BME280;51039;49.696;10.808;2023-05-25T12:41:29;98953.41;;;22.95;37.62
64078;BME280;51039;49.696;10.808;2023-05-25T12:43:54;98958.59;;;23.12;37.78
64078;BME280;51039;49.696;10.808;2023-05-25T12:46:24;98947.78;;;23.07;37.78
64078;BME280;51039;49.696;10.808;2023-05-25T12:48:49;98947.50;;;23.39;37.67
64078;BME280;51039;49.696;10.808;2023-05-25T12:51:15;98942.31;;;23.58;37.78
64078;BME280;51039;49.696;10.808;2023-05-25T12:53:50;98941.25;;;23.54;37.11
64078;BME280;51039;49.696;10.808;2023-05-25T12:56:16;98947.41;;;23.85;36.78
64078;BME280;51039;49.696;10.808;2023-05-25T12:58:41;98937.41;;;23.86;37.38
64078;BME280;51039;49.696;10.808;2023-05-25T13:01:07;98950.88;;;24.06;36.46
64078;BME280;51039;49.696;10.808;2023-05-25T13:03:33;98938.00;;;23.62;37.05
64078;BME280;51039;49.696;10.808;2023-05-25T13:05:59;98954.22;;;23.67;36.71
64078;BME280;51039;49.696;10.808;2023-05-25T13:08:26;98941.53;;;23.58;36.46
64078;BME280;51039;49.696;10.808;2023-05-25T13:10:51;98940.16;;;23.60;37.07
64078;BME280;51039;49.696;10.808;2023-05-25T13:13:16;98942.63;;;23.21;37.07
64078;BME280;51039;49.696;10.808;2023-05-25T13:15:42;98941.00;;;23.40;36.50
64078;BME280;51039;49.696;10.808;2023-05-25T13:18:07;98936.38;;;23.51;37.43
64078;BME280;51039;49.696;10.808;2023-05-25T13:20:32;98935.59;;;23.40;37.25
64078;BME280;51039;49.696;10.808;2023-05-25T13:22:57;98922.06;;;23.50;36.70
64078;BME280;51039;49.696;10.808;2023-05-25T13:25:23;98941.53;;;23.58;37.44
64078;BME280;51039;49.696;10.808;2023-05-25T13:27:51;98933.34;;;23.88;36.08
64078;BME280;51039;49.696;10.808;2023-05-25T13:30:17;98932.81;;;23.81;35.68
64078;BME280;51039;49.696;10.808;2023-05-25T13:32:44;98928.00;;;23.47;35.86
64078;BME280;51039;49.696;10.808;2023-05-25T13:35:10;98928.56;;;23.39;36.95
64078;BME280;51039;49.696;10.808;2023-05-25T13:37:42;98919.13;;;23.16;37.47
64078;BME280;51039;49.696;10.808;2023-05-25T13:40:07;98924.28;;;23.12;36.87
64078;BME280;51039;49.696;10.808;2023-05-25T13:42:33;98915.59;;;23.46;36.48
64078;BME280;51039;49.696;10.808;2023-05-25T13:44:58;98934.78;;;23.40;36.56
64078;BME280;51039;49.696;10.808;2023-05-25T13:47:24;98922.91;;;23.25;36.66
64078;BME280;51039;49.696;10.808;2023-05-25T13:49:49;98922.59;;;23.47;36.39
64078;BME280;51039;49.696;10.808;2023-05-25T13:52:15;98920.47;;;23.19;36.70
64078;BME280;51039;49.696;10.808;2023-05-25T13:54:40;98924.22;;;23.48;37.02
64078;BME280;51039;49.696;10.808;2023-05-25T13:57:05;98922.81;;;23.71;36.53
64078;BME280;51039;49.696;10.808;2023-05-25T13:59:31;98909.56;;;23.65;36.97
64078;BME280;51039;49.696;10.808;2023-05-25T14:01:56;98921.50;;;23.59;37.06
64078;BME280;51039;49.696;10.808;2023-05-25T14:04:22;98912.59;;;23.53;36.63
64078;BME280;51039;49.696;10.808;2023-05-25T14:06:47;98910.72;;;23.43;37.23
64078;BME280;51039;49.696;10.808;2023-05-25T14:09:12;98903.88;;;23.82;36.77
64078;BME280;51039;49.696;10.808;2023-05-25T14:11:38;98902.13;;;23.16;38.00
64078;BME280;51039;49.696;10.808;2023-05-25T14:14:04;98899.88;;;23.53;37.97
64078;BME280;51039;49.696;10.808;2023-05-25T14:16:35;98906.59;;;23.66;36.96
64078;BME280;51039;49.696;10.808;2023-05-25T14:19:02;98895.28;;;23.54;37.51
64078;BME280;51039;49.696;10.808;2023-05-25T14:21:28;98893.66;;;23.48;37.39
64078;BME280;51039;49.696;10.808;2023-05-25T14:23:55;98899.38;;;23.41;37.60
64078;BME280;51039;49.696;10.808;2023-05-25T14:26:21;98899.94;;;23.18;37.54
64078;BME280;51039;49.696;10.808;2023-05-25T14:28:46;98893.47;;;23.13;37.52
64078;BME280;51039;49.696;10.808;2023-05-25T14:31:11;98902.91;;;23.16;37.54
64078;BME280;51039;49.696;10.808;2023-05-25T14:33:37;98902.38;;;22.88;38.45
64078;BME280;51039;49.696;10.808;2023-05-25T14:36:02;98902.38;;;22.83;38.96
64078;BME280;51039;49.696;10.808;2023-05-25T14:38:28;98903.72;;;22.91;39.50
64078;BME280;51039;49.696;10.808;2023-05-25T14:40:54;98900.25;;;23.06;38.60
64078;BME280;51039;49.696;10.808;2023-05-25T14:43:19;98897.78;;;22.73;39.08
64078;BME280;51039;49.696;10.808;2023-05-25T14:45:45;98905.84;;;22.94;39.52
64078;BME280;51039;49.696;10.808;2023-05-25T14:48:10;98896.44;;;23.12;39.13
64078;BME280;51039;49.696;10.808;2023-05-25T14:50:36;98898.03;;;23.39;38.89
64078;BME280;51039;49.696;10.808;2023-05-25T14:53:01;98895.31;;;23.33;38.64
64078;BME280;51039;49.696;10.808;2023-05-25T14:55:26;98905.88;;;23.15;39.24
64078;BME280;51039;49.696;10.808;2023-05-25T14:57:51;98898.03;;;22.98;39.44
64078;BME280;51039;49.696;10.808;2023-05-25T15:00:17;98897.22;;;23.28;39.42
64078;BME280;51039;49.696;10.808;2023-05-25T15:02:42;98894.78;;;23.31;38.54
64078;BME280;51039;49.696;10.808;2023-05-25T15:05:08;98892.34;;;23.25;40.01
64078;BME280;51039;49.696;10.808;2023-05-25T15:07:33;98903.44;;;23.13;39.74
64078;BME280;51039;49.696;10.808;2023-05-25T15:09:58;98908.28;;;22.96;40.17
64078;BME280;51039;49.696;10.808;2023-05-25T15:12:23;98902.13;;;23.16;40.01
64078;BME280;51039;49.696;10.808;2023-05-25T15:14:49;98893.19;;;23.20;39.68
64078;BME280;51039;49.696;10.808;2023-05-25T15:17:14;98903.69;;;23.32;39.82
64078;BME280;51039;49.696;10.808;2023-05-25T15:19:39;98888.06;;;23.08;40.13
64078;BME280;51039;49.696;10.808;2023-05-25T15:22:05;98903.19;;;23.20;39.97
64078;BME280;51039;49.696;10.808;2023-05-25T15:24:30;98894.53;;;23.33;40.25
64078;BME280;51039;49.696;10.808;2023-05-25T15:26:55;98907.47;;;23.36;39.52
64078;BME280;51039;49.696;10.808;2023-05-25T15:29:21;98900.47;;;23.25;39.42
64078;BME280;51039;49.696;10.808;2023-05-25T15:31:49;98895.63;;;22.91;39.93
64078;BME280;51039;49.696;10.808;2023-05-25T15:34:15;98890.75;;;23.03;39.88
64078;BME280;51039;49.696;10.808;2023-05-25T15:36:40;98900.78;;;23.08;40.05
64078;BME280;51039;49.696;10.808;2023-05-25T15:39:05;98886.97;;;23.20;39.43
64078;BME280;51039;49.696;10.808;2023-05-25T15:41:32;98885.63;;;23.07;40.27
64078;BME280;51039;49.696;10.808;2023-05-25T15:43:58;98895.06;;;22.73;40.13
64078;BME280;51039;49.696;10.808;2023-05-25T15:46:25;98895.06;;;22.79;41.00
64078;BME280;51039;49.696;10.808;2023-05-25T15:48:51;98896.69;;;22.80;40.10